Lee-On-Solent, United Kingdom

7:44 PM BST on September 01, 2014 (GMT +0100)
Lee-on-the-Solent | Change Station
CLOSE
Current Station
Personal Weather Station
Location: Lee-on-the-Solent, ENGLAND
Elevation: 23 ft
Nearby Weather Stations

Elev 23 ft 50.80 °N, 1.19 °W | Updated 3 seconds ago

Light Rain Showers
Light Showers Rain
64.4 °F
Feels Like 64.4 °F
N
3.2
Wind Variable Wind from SW
Gusts 5.0 mph

Today
High -- | Low -- °F
--% Chance of Precip.
Yesterday
High -- | Low -- °F
Precip. -- in
6:18 AM 7:50 PM
Waxing Crescent, 43% visible
Pressure 30.12 in
Visibility 3.7 miles
Clouds Few 700 ft
Scattered Clouds 1100 ft
Mostly Cloudy 1900 ft
Dew Point 62 °F
Humidity 91%
Rainfall 0.05 in
Snow Depth Not available.
UV 0.0 out of 12
Pollen Not available.
Air Quality Not available.
Flu Activity Not available.
METAR EGHI 011820Z VRB03KT 6000 -SHRA FEW007 SCT011 BKN019 17/15 Q1020

More Conditions Fewer Conditions

Pressure 30.12 in
Visibility 3.7 miles
Clouds Few 700 ft
Scattered Clouds 1100 ft
Mostly Cloudy 1900 ft
Dew Point 62 °F
Humidity 91%
Rainfall 0.05 in
Snow Depth Not available.
UV 0.0 out of 12
Pollen Not available.
Air Quality Not available.
Flu Activity Not available.
METAR EGHI 011820Z VRB03KT 6000 -SHRA FEW007 SCT011 BKN019 17/15 Q1020

More Conditions Fewer Conditions

10-Day Weather Forecast

Almanac

Astronomy

Sep. 01, 2014 Rise Set
Actual Time 6:18 AM BST 7:50 PM BST
Civil Twilight 5:43 AM BST 8:24 PM BST
Nautical Twilight 5:01 AM BST 9:06 PM BST
Astronomical Twilight 4:15 AM BST 9:52 PM BST
Moon 1:32 PM BST 10:55 PM BST
Length of Visible Light 14h 40m
Length of Day
13h 32m
Tomorrow will be 3m 44s shorter.
Waxing Crescent, 43% of the Moon is Illuminated
Today
Waxing Crescent
Sep 2
First Quarter
Sep 8
Full
Sep 15
Last Quarter
Sep 24
New

Today's Extremes

Country Highs Country Lows

Community

WunderPhotos

Upload Photos

1,749,359 photos uploaded!

Nearby

Snow Depth

Not available.

Earthquake Activity

City Distance Mag. Time & Date
No recent earthquake activity has been reported nearby.
Minimum magnitude displayed is 2.5.

Coastal Water Temperatures

Place Temperature
No Stations Reporting

Nearby Weather Stations